Home > Products > Valid Products > MTR

000
SAUS41 KCAR 050058
MTRGNR
METAR KGNR 050056Z AUTO 11004KT 07/04 A2987 RMK AO1 SLP125 T00670039





000
SAUS41 KCAR 050016
MTR40B
METAR K40B 050016Z AUTO VRB03KT 07/03 A2991 RMK AO1 SLP134
     T00690032 10118 20064 50006





000
SAUS41 KCAR 042357
MTRGNR
METAR KGNR 042356Z AUTO 10003KT 07/04 A2987 RMK AO1 SLP126 60002
T00670044 10094 20067 50006





000
SAUS41 KCAR 042357
MTRGNR
METAR KGNR 042356Z AUTO 10003KT 07/04 A2987 RMK AO1 SLP126 60002
T00670044 10094 20067 50006





000
SAUS41 KCAR 042316
MTR40B
METAR K40B 042316Z AUTO VRB02KT 09/03 A2992 RMK AO1 SLP139
     T00890029 53008





000
SAUS41 KCAR 042258
MTRGNR
METAR KGNR 042256Z AUTO 00000KT 07/04 A2987 RMK AO1 SLP126 P0001
T00720044





000
SAUS41 KCAR 042258
MTRGNR
METAR KGNR 042256Z AUTO 00000KT 07/04 A2987 RMK AO1 SLP126 P0001
T00720044





000
SAUS41 KCAR 042216
MTR40B
METAR K40B 042216Z AUTO VRB05KT 10/03 A2990 RMK AO1 SLP134
     T00950028 55002





000
SAUS41 KCAR 042216
MTR40B
METAR K40B 042216Z AUTO VRB05KT 10/03 A2990 RMK AO1 SLP134
     T00950028 55002





000
SAUS41 KCAR 042157
MTRGNR
METAR KGNR 042156Z AUTO 12003KT 08/04 A2987 RMK AO1 SLP127 P0001
T00780039





000
SAUS41 KCAR 042157
MTRGNR
METAR KGNR 042156Z AUTO 12003KT 08/04 A2987 RMK AO1 SLP127 P0001
T00780039





000
SAUS41 KCAR 042116
MTR40B
METAR K40B 042116Z AUTO VRB03KT 10/02 A2989 RMK AO1 SLP130
     T01030023 57008





000
SAUS41 KCAR 042116
MTR40B
METAR K40B 042116Z AUTO VRB03KT 10/02 A2989 RMK AO1 SLP130
     T01030023 57008





000
SAUS41 KCAR 042057
MTRGNR
METAR KGNR 042056Z AUTO 10009KT 09/03 A2985 RMK AO1 SLP119 T00890028
58007





000
SAUS41 KCAR 042057
MTRGNR
METAR KGNR 042056Z AUTO 10009KT 09/03 A2985 RMK AO1 SLP119 T00890028
58007





000
SAUS41 KCAR 042019
MTR40B
METAR K40B 042019Z AUTO VRB04KT 11/04 A2989 RMK AO1 SLP133
     T01150037 58008





000
SAUS41 KCAR 042019
MTR40B
METAR K40B 042019Z AUTO VRB04KT 11/04 A2989 RMK AO1 SLP133
     T01150037 58008





000
SAUS41 KCAR 041958
MTRGNR
METAR KGNR 041956Z AUTO 13006KT 09/02 A2985 RMK AO1 SLP119 T00890022





000
SAUS41 KCAR 041916
MTR40B
METAR K40B 041916Z AUTO VRB04KT 10/03 A2991 RMK AO1 SLP139
     T00950030 57004





000
SAUS41 KCAR 041916
MTR40B
METAR K40B 041916Z AUTO VRB04KT 10/03 A2991 RMK AO1 SLP139
     T00950030 57004





000
SAUS41 KCAR 041857
MTRGNR
METAR KGNR 041856Z AUTO 13007KT 110V190 09/02 A2988 RMK AO1 SLP127
T00890022





000
SAUS41 KCAR 041857
MTRGNR
METAR KGNR 041856Z AUTO 13007KT 110V190 09/02 A2988 RMK AO1 SLP127
T00890022





000
SAUS41 KCAR 041816
MTR40B
METAR K40B 041816Z AUTO VRB05KT 09/04 A2991 RMK AO1 SLP141
     T00900042 10098 20049 57005





000
SAUS41 KCAR 041757
MTRGNR
METAR KGNR 041756Z AUTO VRB04KT 09/02 A2987 RMK AO1 SLP125 T00940022
10094 20050 57005





000
SAUS41 KCAR 041757
MTRGNR
METAR KGNR 041756Z AUTO VRB04KT 09/02 A2987 RMK AO1 SLP125 T00940022
10094 20050 57005





000
SAUS41 KCAR 041716
MTR40B
METAR K40B 041716Z AUTO 00000KT 10/03 A2992 RMK AO1 SLP144
     T00960030 57005





000
SAUS41 KCAR 041657
MTRGNR
METAR KGNR 041656Z AUTO 00000KT 09/02 A2988 RMK AO1 SLP129 T00890022





000
SAUS41 KCAR 041616
MTR40B
METAR K40B 041616Z AUTO VRB04KT 08/02 A2992 RMK AO1 SLP146
     T00850019 58002





000
SAUS41 KCAR 041558
MTRGNR
METAR KGNR 041556Z AUTO 04005KT 08/02 A2988 RMK AO1 SLP128 T00830017





000
SAUS41 KCAR 041516
MTR40B
METAR K40B 041516Z AUTO VRB03KT 08/02 A2993 RMK AO1 SLP149
     T00820023 51004





000
SAUS41 KCAR 041457
MTRGNR
METAR KGNR 041456Z AUTO VRB06KT 07/03 A2989 RMK AO1 SLP132 T00720028
50004





000
SAUS41 KCAR 041434
MTR40B
METAR K40B 041434Z AUTO VRB03KT 07/03 A2993 RMK AO1 SLP151
     T00690028 52007





000
SAUS41 KCAR 041358
MTRGNR
METAR KGNR 041356Z AUTO 10007KT 06/03 A2990 RMK AO1 SLP138 T00610028





000
SAUS41 KCAR 041316
MTR40B
METAR K40B 041316Z AUTO VRB04KT 06/03 A2993 RMK AO1 SLP149
     T00590031 52008





000
SAUS41 KCAR 041257
MTRGNR
METAR KGNR 041256Z AUTO 00000KT 06/03 A2990 RMK AO1 SLP136 T00560028





000
SAUS41 KCAR 041257
MTRGNR
METAR KGNR 041256Z AUTO 00000KT 06/03 A2990 RMK AO1 SLP136 T00560028





000
SAUS41 KCAR 041216
MTR40B
METAR K40B 041216Z AUTO 00000KT 05/04 A2991 RMK AO1 SLP145
     T00500039 10050 20020 52008 60000 70000





000
SAUS41 KCAR 041216
MTR40B
METAR K40B 041216Z AUTO 00000KT 05/04 A2991 RMK AO1 SLP145
     T00500039 10050 20020 52008 60000 70000





000
SAUS41 KCAR 041157
MTRGNR
METAR KGNR 041156Z AUTO 00000KT 05/03 A2987 RMK AO1 SLP128 T00500028
10050 20039 51010





000
SAUS41 KCAR 041116
MTR40B
METAR K40B 041116Z AUTO 00000KT 04/04 A2991 RMK AO1 SLP144
     T00360036 52007 P0000





000
SAUS41 KCAR 041116
MTR40B
METAR K40B 041116Z AUTO 00000KT 04/04 A2991 RMK AO1 SLP144
     T00360036 52007 P0000





000
SAUS41 KCAR 041058
MTRGNR
METAR KGNR 041056Z AUTO 00000KT 04/04 A2987 RMK AO1 SLP126 T00440039





000
SAUS41 KCAR 041058
MTRGNR
METAR KGNR 041056Z AUTO 00000KT 04/04 A2987 RMK AO1 SLP126 T00440039





000
SAUS41 KCAR 041016
MTR40B
METAR K40B 041016Z AUTO 00000KT 02/02 A2990 RMK AO1 SLP140
     T00250025 52003





000
SAUS41 KCAR 041016
MTR40B
METAR K40B 041016Z AUTO 00000KT 02/02 A2990 RMK AO1 SLP140
     T00250025 52003





000
SAUS41 KCAR 040957
MTRGNR
METAR KGNR 040956Z AUTO 00000KT 04/03 A2986 RMK AO1 SLP121 T00390033





000
SAUS41 KCAR 040916
MTR40B
METAR K40B 040916Z AUTO 00000KT 02/02 A2989 RMK AO1 SLP137
     T00200020 52002





000
SAUS41 KCAR 040858
MTRGNR
METAR KGNR 040856Z AUTO 00000KT 04/03 A2984 RMK AO1 SLP117 T00390033
58001





000
SAUS41 KCAR 040858
MTRGNR
METAR KGNR 040856Z AUTO 00000KT 04/03 A2984 RMK AO1 SLP117 T00390033
58001





000
SAUS41 KCAR 040816
MTR40B
METAR K40B 040816Z AUTO 00000KT 02/02 A2989 RMK AO1 SLP135
     T00200020 52002





000
SAUS41 KCAR 040757
MTRGNR
METAR KGNR 040756Z AUTO 09004KT 04/03 A2985 RMK AO1 SLP118 T00390033





000
SAUS41 KCAR 040716
MTR40B
METAR K40B 040716Z AUTO 00000KT 02/02 A2989 RMK AO1 SLP134
     T00230022 54001





000
SAUS41 KCAR 040658
MTRGNR
METAR KGNR 040656Z AUTO 00000KT 04/04 A2985 RMK AO1 SLP118 T00440039





000
SAUS41 KCAR 040616
MTR40B
METAR K40B 040616Z AUTO 00000KT 02/02 A2988 RMK AO1 SLP132
     T00250024 10044 20023 57003





000
SAUS41 KCAR 040557
MTRGNR
METAR KGNR 040556Z AUTO 00000KT 04/04 A2985 RMK AO1 SLP118 T00440039
10061 20044 56002





000
SAUS41 KCAR 040557
MTRGNR
METAR KGNR 040556Z AUTO 00000KT 04/04 A2985 RMK AO1 SLP118 T00440039
10061 20044 56002





000
SAUS41 KCAR 040516
MTR40B
METAR K40B 040516Z AUTO 00000KT 03/03 A2988 RMK AO1 SLP132
     T00260025 400730002 57004





000
SAUS41 KCAR 040458
MTRGNR
METAR KGNR 040456Z AUTO 00000KT 04/04 A2985 RMK AO1 SLP119 T00440039
400940017





000
SAUS41 KCAR 040458
MTRGNR
METAR KGNR 040456Z AUTO 00000KT 04/04 A2985 RMK AO1 SLP119 T00440039
400940017





000
SAUS41 KCAR 040416
MTR40B
METAR K40B 040416Z AUTO 00000KT 03/03 A2988 RMK AO1 SLP132
     T00280027 57005





000
SAUS41 KCAR 040357
MTRGNR
METAR KGNR 040356Z AUTO 00000KT 05/03 A2985 RMK AO1 SLP119 T00500033





000
SAUS41 KCAR 040357
MTRGNR
METAR KGNR 040356Z AUTO 00000KT 05/03 A2985 RMK AO1 SLP119 T00500033





000
SAUS41 KCAR 040316
MTR40B
METAR K40B 040316Z AUTO 00000KT 03/03 A2989 RMK AO1 SLP135
     T00300028 50004





000
SAUS41 KCAR 040316
MTR40B
METAR K40B 040316Z AUTO 00000KT 03/03 A2989 RMK AO1 SLP135
     T00300028 50004





000
SAUS41 KCAR 040258
MTRGNR
METAR KGNR 040256Z AUTO 00000KT 05/03 A2985 RMK AO1 SLP120 T00500033
50004





000
SAUS41 KCAR 040258
MTRGNR
METAR KGNR 040256Z AUTO 00000KT 05/03 A2985 RMK AO1 SLP120 T00500033
50004





000
SAUS41 KCAR 040216
MTR40B
METAR K40B 040216Z AUTO 00000KT 03/03 A2990 RMK AO1 SLP135
     T00330031 51008





000
SAUS41 KCAR 040157
MTRGNR
METAR KGNR 040156Z AUTO 00000KT 06/03 A2986 RMK AO1 SLP123 T00560028





000
SAUS41 KCAR 040157
MTRGNR
METAR KGNR 040156Z AUTO 00000KT 06/03 A2986 RMK AO1 SLP123 T00560028





000
SAUS41 KCAR 040116
MTR40B
METAR K40B 040116Z AUTO 00000KT 04/03 A2990 RMK AO1 SLP136
     T00370034 53009





000
SAUS41 KCAR 040058
MTRGNR
METAR KGNR 040056Z AUTO 01004KT 06/03 A2986 RMK AO1 SLP123 T00610028





000
SAUS41 KCAR 040016
MTR40B
METAR K40B 040016Z AUTO 00000KT 04/04 A2988 RMK AO1 SLP131
     T00410038 10073 20042 52002





000
SAUS41 KCAR 032357
MTRGNR
METAR KGNR 032356Z AUTO 03005KT 06/03 A2984 RMK AO1 SLP117 T00610028
10094 20061 51004





000
SAUS41 KCAR 032316
MTR40B
METAR K40B 032316Z AUTO 00000KT 06/04 A2987 RMK AO1 SLP128
     T00570040 54001





000
SAUS41 KCAR 032316
MTR40B
METAR K40B 032316Z AUTO 00000KT 06/04 A2987 RMK AO1 SLP128
     T00570040 54001





000
SAUS41 KCAR 032258
MTRGNR
METAR KGNR 032256Z AUTO 36005KT 06/03 A2984 RMK AO1 SLP116 T00610028





000
SAUS41 KCAR 032216
MTR40B
METAR K40B 032216Z AUTO VRB03KT 06/04 A2987 RMK AO1 SLP128
     T00590043 54001





000
SAUS41 KCAR 032216
MTR40B
METAR K40B 032216Z AUTO VRB03KT 06/04 A2987 RMK AO1 SLP128
     T00590043 54001





000
SAUS41 KCAR 032157
MTRGNR
METAR KGNR 032156Z AUTO 35005KT 07/03 A2983 RMK AO1 SLP114 T00670028





000
SAUS41 KCAR 032116
MTR40B
METAR K40B 032116Z AUTO VRB03KT 06/04 A2988 RMK AO1 SLP130
     T00580036 55003





000
SAUS41 KCAR 032057
MTRGNR
METAR KGNR 032056Z AUTO 32007KT 08/03 A2983 RMK AO1 SLP112 T00780028
55004





000
SAUS41 KCAR 032057
MTRGNR
METAR KGNR 032056Z AUTO 32007KT 08/03 A2983 RMK AO1 SLP112 T00780028
55004





000
SAUS41 KCAR 032016
MTR40B
METAR K40B 032016Z AUTO 00000KT 07/03 A2988 RMK AO1 SLP131
     T00720027 55004





000
SAUS41 KCAR 032016
MTR40B
METAR K40B 032016Z AUTO 00000KT 07/03 A2988 RMK AO1 SLP131
     T00720027 55004





000
SAUS41 KCAR 031957
MTRGNR
METAR KGNR 031956Z AUTO 32007KT 08/03 A2983 RMK AO1 SLP112 T00780028





000
SAUS41 KCAR 031916
MTR40B
METAR K40B 031916Z AUTO 00000KT 07/03 A2987 RMK AO1 SLP129
     T00700029 57007





000
SAUS41 KCAR 031858
MTRGNR
METAR KGNR 031856Z AUTO 36010KT 08/03 A2983 RMK AO1 SLP113 T00830033





000
SAUS41 KCAR 031816
MTR40B
METAR K40B 031816Z AUTO 00000KT 06/04 A2988 RMK AO1 SLP135
     T00630041 10064 20028 57003





000
SAUS41 KCAR 031757
MTRGNR
METAR KGNR 031756Z AUTO 01008KT 07/03 A2984 RMK AO1 SLP117 T00720028
10083 20022 56007





000
SAUS41 KCAR 031716
MTR40B
METAR K40B 031716Z AUTO VRB03KT 06/04 A2989 RMK AO1 SLP137
     T00600036 57005





000
SAUS41 KCAR 031657
MTRGNR
METAR KGNR 031656Z AUTO 35007KT 07/03 A2984 RMK AO1 SLP119 T00720033





000
SAUS41 KCAR 031657
MTRGNR
METAR KGNR 031656Z AUTO 35007KT 07/03 A2984 RMK AO1 SLP119 T00720033





000
SAUS41 KCAR 031616
MTR40B
METAR K40B 031616Z AUTO VRB02KT 06/03 A2989 RMK AO1 SLP139
     T00580028 57005





000
SAUS41 KCAR 031616
MTR40B
METAR K40B 031616Z AUTO VRB02KT 06/03 A2989 RMK AO1 SLP139
     T00580028 57005





000
SAUS41 KCAR 031558
MTRGNR
METAR KGNR 031556Z AUTO VRB05KT 07/03 A2985 RMK AO1 SLP119 T00720033





000
SAUS41 KCAR 031516
MTR40B
METAR K40B 031516Z AUTO 00000KT 06/03 A2989 RMK AO1 SLP140
     T00570033 58003





000
SAUS41 KCAR 031457
MTRGNR
METAR KGNR 031456Z AUTO VRB04KT 06/04 A2986 RMK AO1 SLP125 T00560039
50001





000
SAUS41 KCAR 031416
MTR40B
METAR K40B 031416Z AUTO VRB02KT 04/03 A2990 RMK AO1 SLP144
     T00420032 54000





000
SAUS41 KCAR 031358
MTRGNR
METAR KGNR 031356Z AUTO 33004KT 04/03 A2986 RMK AO1 SLP127 T00390028





000
SAUS41 KCAR 031316
MTR40B
METAR K40B 031316Z AUTO VRB02KT 03/03 A2991 RMK AO1 SLP146
     T00340028 52002





000
SAUS41 KCAR 031316
MTR40B
METAR K40B 031316Z AUTO VRB02KT 03/03 A2991 RMK AO1 SLP146
     T00340028 52002





000
SAUS41 KCAR 031257
MTRGNR
METAR KGNR 031256Z AUTO VRB03KT 03/02 A2987 RMK AO1 SLP130 T00280022





000
SAUS41 KCAR 031257
MTRGNR
METAR KGNR 031256Z AUTO VRB03KT 03/02 A2987 RMK AO1 SLP130 T00280022





000
SAUS41 KCAR 031216
MTR40B
METAR K40B 031216Z AUTO 00000KT 03/03 A2990 RMK AO1 SLP143
     T00280027 10029 20002 54000 P0000 60002 70039





000
SAUS41 KCAR 031216
MTR40B
METAR K40B 031216Z AUTO 00000KT 03/03 A2990 RMK AO1 SLP143
     T00280027 10029 20002 54000 P0000 60002 70039





000
SAUS41 KCAR 031157
MTRGNR
METAR KGNR 031156Z AUTO 32007KT 02/02 A2986 RMK AO1 SLP126 70054
T00220022 10022 20017 53003





000
SAUS41 KCAR 031157
MTRGNR
METAR KGNR 031156Z AUTO 32007KT 02/02 A2986 RMK AO1 SLP126 70054
T00220022 10022 20017 53003





000
SAUS41 KCAR 031116
MTR40B
METAR K40B 031116Z AUTO 00000KT 01/01 A2990 RMK AO1 SLP145
     T00140014 55003





000
SAUS41 KCAR 031058
MTRGNR
METAR KGNR 031056Z AUTO VRB05KT 02/02 A2985 RMK AO1 SLP124 T00220017





000
SAUS41 KCAR 031058
MTRGNR
METAR KGNR 031056Z AUTO VRB05KT 02/02 A2985 RMK AO1 SLP124 T00220017





000
SAUS41 KCAR 031016
MTR40B
METAR K40B 031016Z AUTO 00000KT 01/01 A2990 RMK AO1 SLP144
     T00090009 55006





000
SAUS41 KCAR 031016
MTR40B
METAR K40B 031016Z AUTO 00000KT 01/01 A2990 RMK AO1 SLP144
     T00090009 55006





000
SAUS41 KCAR 030957
MTRGNR
METAR KGNR 030956Z AUTO VRB04KT 02/02 A2985 RMK AO1 SLP122 T00170017





000
SAUS41 KCAR 030916
MTR40B
METAR K40B 030916Z AUTO 00000KT 00/00 A2990 RMK AO1 SLP143
     T00040005 58009 P0000 60002





000
SAUS41 KCAR 030858
MTRGNR
METAR KGNR 030856Z AUTO 34005KT 02/01 A2985 RMK AO1 SLP121 T00170011
56006





000
SAUS41 KCAR 030858
MTRGNR
METAR KGNR 030856Z AUTO 34005KT 02/01 A2985 RMK AO1 SLP121 T00170011
56006





000
SAUS41 KCAR 030819
MTR40B
METAR K40B 030819Z AUTO 00000KT 00/00 A2991 RMK AO1 SLP148
     T00030004 57006 P0000





000
SAUS41 KCAR 030757
MTRGNR
METAR KGNR 030756Z AUTO 34007KT 02/02 A2985 RMK AO1 SLP124 T00170017





000
SAUS41 KCAR 030716
MTR40B
METAR K40B 030716Z AUTO 00000KT 00/00 A2992 RMK AO1 SLP148
     T00030003 57005 P0001





000
SAUS41 KCAR 030716
MTR40B
METAR K40B 030716Z AUTO 00000KT 00/00 A2992 RMK AO1 SLP148
     T00030003 57005 P0001





000
SAUS41 KCAR 030658
MTRGNR
METAR KGNR 030656Z AUTO 33006KT 02/02 A2986 RMK AO1 SLP125 T00170017





000
SAUS41 KCAR 030616
MTR40B
METAR K40B 030616Z AUTO 00000KT 00/00 A2993 RMK AO1 SLP150
     T00030003 10026 20003 56011 P0002 60018





000
SAUS41 KCAR 030557
MTRGNR
METAR KGNR 030556Z AUTO 33004KT 02/02 A2987 RMK AO1 SLP128 60017
T00170017 10022 20017 56013





000
SAUS41 KCAR 030557
MTRGNR
METAR KGNR 030556Z AUTO 33004KT 02/02 A2987 RMK AO1 SLP128 60017
T00170017 10022 20017 56013





000
SAUS41 KCAR 030519
MTR40B
METAR K40B 030519Z AUTO 00000KT 00/00 A2993 RMK AO1 SLP152
     T00030003 400730003 56015 P0001





000
SAUS41 KCAR 030458
MTRGNR
METAR KGNR 030456Z AUTO 33004KT 02/02 A2987 RMK AO1 SLP129 P0001
T00170017 400390011





000
SAUS41 KCAR 030416
MTR40B
METAR K40B 030416Z AUTO 00000KT 00/00 A2993 RMK AO1 SLP152
     T00040004 57019 P0002





000
SAUS41 KCAR 030357
MTRGNR
METAR KGNR 030356Z AUTO 32004KT 02/02 A2989 RMK AO1 SLP138 P0003
T00220017





000
SAUS41 KCAR 030316
MTR40B
METAR K40B 030316Z AUTO 00000KT 00/00 A2996 RMK AO1 SLP161
     T00030003 58009 P0003 60013





000
SAUS41 KCAR 030258
MTRGNR
METAR KGNR 030256Z AUTO 00000KT 02/02 A2991 RMK AO1 SLP141 P0002
60013 T00220017 56009





000
SAUS41 KCAR 030216
MTR40B
METAR K40B 030216Z AUTO 00000KT 00/00 A2998 RMK AO1 SLP165
     T00040002 58004 P0005





000
SAUS41 KCAR 030216
MTR40B
METAR K40B 030216Z AUTO 00000KT 00/00 A2998 RMK AO1 SLP165
     T00040002 58004 P0005





000
SAUS41 KCAR 030157
MTRGNR
METAR KGNR 030156Z AUTO 09004KT 02/02 A2991 RMK AO1 SLP144 P0006
T00220017





000
SAUS41 KCAR 030116
MTR40B
METAR K40B 030116Z AUTO VRB04KT 02/01 A2999 RMK AO1 SLP171
     T00170011 55005 P0005





000
SAUS41 KCAR 030116
MTR40B
METAR K40B 030116Z AUTO VRB04KT 02/01 A2999 RMK AO1 SLP171
     T00170011 55005 P0005





000
SAUS41 KCAR 030058
MTRGNR
METAR KGNR 030056Z AUTO 08004KT 02/02 A2992 RMK AO1 SLP147 P0005
T00220017





000
SAUS41 KCAR 030058
MTRGNR
METAR KGNR 030056Z AUTO 08004KT 02/02 A2992 RMK AO1 SLP147 P0005
T00220017





000
SAUS41 KCAR 030019
MTR40B
METAR K40B 030019Z AUTO VRB04KT 03/02 A2999 RMK AO1 SLP169
     T00250020 10050 20025 56009 P0005 60018





000
SAUS41 KCAR 030019
MTR40B
METAR K40B 030019Z AUTO VRB04KT 03/02 A2999 RMK AO1 SLP169
     T00250020 10050 20025 56009 P0005 60018





000
SAUS41 KCAR 022357
MTRGNR
METAR KGNR 022356Z AUTO 08003KT 02/02 A2994 RMK AO1 SLP152 P0005
60031 T00220017 10033 20022 58004





000
SAUS41 KCAR 022357
MTRGNR
METAR KGNR 022356Z AUTO 08003KT 02/02 A2994 RMK AO1 SLP152 P0005
60031 T00220017 10033 20022 58004





000
SAUS41 KCAR 022319
MTR40B
METAR K40B 022319Z AUTO VRB03KT 03/03 A2999 RMK AO1 SLP168
     T00310026 58012 P0005





000
SAUS41 KCAR 022258
MTRGNR
METAR KGNR 022256Z AUTO 09006KT 02/02 A2994 RMK AO1 SLP154 P0007
T00220017





000
SAUS41 KCAR 022258
MTRGNR
METAR KGNR 022256Z AUTO 09006KT 02/02 A2994 RMK AO1 SLP154 P0007
T00220017





000
SAUS41 KCAR 022216
MTR40B
METAR K40B 022216Z AUTO VRB05KT 04/03 A3001 RMK AO1 SLP176
     T00350029 57011 P0004





000
SAUS41 KCAR 022157
MTRGNR
METAR KGNR 022156Z AUTO 09006KT 03/02 A2995 RMK AO1 SLP159 P0005
T00280022





000
SAUS41 KCAR 022116
MTR40B
METAR K40B 022116Z AUTO VRB05KT 04/03 A3002 RMK AO1 SLP178
     T00370027 57014 P0003 60004





000
SAUS41 KCAR 022057
MTRGNR
METAR KGNR 022056Z AUTO 07008KT 03/03 A2995 RMK AO1 SLP156 P0005
60014 T00330028 58020





000
SAUS41 KCAR 022016
MTR40B
METAR K40B 022016Z AUTO VRB04KT 05/03 A3002 RMK AO1 SLP181
     T00460030 58014 P0000





000
SAUS41 KCAR 021957
MTRGNR
METAR KGNR 021956Z AUTO 09009KT 03/02 A2997 RMK AO1 SLP163 P0006
T00280022





000
SAUS41 KCAR 021916
MTR40B
METAR K40B 021916Z AUTO VRB05KT 04/02 A3004 RMK AO1 SLP187
     T00450024 56015 P0001





000
SAUS41 KCAR 021916
MTR40B
METAR K40B 021916Z AUTO VRB05KT 04/02 A3004 RMK AO1 SLP187
     T00450024 56015 P0001





000
SAUS41 KCAR 021857
MTRGNR
METAR KGNR 021856Z AUTO 12007KT 03/03 A2999 RMK AO1 SLP171 P0003
T00330033





000
SAUS41 KCAR 021857
MTRGNR
METAR KGNR 021856Z AUTO 12007KT 03/03 A2999 RMK AO1 SLP171 P0003
T00330033





000
SAUS41 KCAR 021816
MTR40B
METAR K40B 021816Z AUTO VRB06KT 05/02 A3006 RMK AO1 SLP192
     T00480021 10058 20045 56013 60000





000
SAUS41 KCAR 021758
MTRGNR
METAR KGNR 021756Z AUTO 12006KT 03/03 A3001 RMK AO1 SLP177 P0001
60006 T00330028 10033 20011 58015





000
SAUS41 KCAR 021758
MTRGNR
METAR KGNR 021756Z AUTO 12006KT 03/03 A3001 RMK AO1 SLP177 P0001
60006 T00330028 10033 20011 58015





000
SAUS41 KCAR 021716
MTR40B
METAR K40B 021716Z AUTO VRB04KT 05/03 A3007 RMK AO1 SLP195
     T00520028 57015





000
SAUS41 KCAR 021657
MTRGNR
METAR KGNR 021656Z AUTO VRB05KT 03/03 A3002 RMK AO1 SLP181 P0001
T00330028





000
SAUS41 KCAR 021657
MTRGNR
METAR KGNR 021656Z AUTO VRB05KT 03/03 A3002 RMK AO1 SLP181 P0001
T00330028





000
SAUS41 KCAR 021616
MTR40B
METAR K40B 021616Z AUTO VRB05KT 05/03 A3009 RMK AO1 SLP201
     T00480025 58005





000
SAUS41 KCAR 021616
MTR40B
METAR K40B 021616Z AUTO VRB05KT 05/03 A3009 RMK AO1 SLP201
     T00480025 58005





000
SAUS41 KCAR 021558
MTRGNR
METAR KGNR 021556Z AUTO 12009KT 03/03 A3005 RMK AO1 SLP191 P0001
T00280028





000
SAUS41 KCAR 021516
MTR40B
METAR K40B 021516Z AUTO VRB03KT 05/02 A3010 RMK AO1 SLP204
     T00460023 56008 60000





000
SAUS41 KCAR 021516
MTR40B
METAR K40B 021516Z AUTO VRB03KT 05/02 A3010 RMK AO1 SLP204
     T00460023 56008 60000





000
SAUS41 KCAR 021457
MTRGNR
METAR KGNR 021456Z AUTO 14006G14KT 03/02 A3006 RMK AO1 SLP193 P0001
60003 T00280022 58012





000
SAUS41 KCAR 021457
MTRGNR
METAR KGNR 021456Z AUTO 14006G14KT 03/02 A3006 RMK AO1 SLP193 P0001
60003 T00280022 58012





000
SAUS41 KCAR 021419
MTR40B
METAR K40B 021419Z AUTO VRB05KT 05/02 A3011 RMK AO1 SLP209
     T00530017 50000





000
SAUS41 KCAR 021358
MTRGNR
METAR KGNR 021356Z AUTO 11007KT 02/02 A3008 RMK AO1 SLP200 T00220017





000
SAUS41 KCAR 021316
MTR40B
METAR K40B 021316Z AUTO 00000KT 06/04 A3010 RMK AO1 SLP205
     T00550038 50001 P0000





000
SAUS41 KCAR 021316
MTR40B
METAR K40B 021316Z AUTO 00000KT 06/04 A3010 RMK AO1 SLP205
     T00550038 50001 P0000





000
SAUS41 KCAR 021257
MTRGNR
METAR KGNR 021256Z AUTO 11008KT 02/01 A3008 RMK AO1 SLP201 P0002
T00220011





000
SAUS41 KCAR 021220
MTR40B
METAR K40B 021220Z AUTO VRB05KT 05/04 A3012 RMK AO1 SLP211
     T00530043 10053 20032 53008 60005 70007





000
SAUS41 KCAR 021220
MTR40B
METAR K40B 021220Z AUTO VRB05KT 05/04 A3012 RMK AO1 SLP211
     T00530043 10053 20032 53008 60005 70007





000
SAUS41 KCAR 021157
MTRGNR
METAR KGNR 021156Z AUTO VRB04KT 02/01 A3009 RMK AO1 SLP204 P0001
60002 70008 T00170011 10039 20017 51004





000
SAUS41 KCAR 021157
MTRGNR
METAR KGNR 021156Z AUTO VRB04KT 02/01 A3009 RMK AO1 SLP204 P0001
60002 70008 T00170011 10039 20017 51004





000
SAUS41 KCAR 021120
MTR40B
METAR K40B 021120Z AUTO 00000KT 04/04 A3011 RMK AO1 SLP207
     T00410039 55001





000
SAUS41 KCAR 021058
MTRGNR
METAR KGNR 021056Z AUTO VRB03KT 02/01 A3009 RMK AO1 SLP202 T00220006





000
SAUS41 KCAR 021058
MTRGNR
METAR KGNR 021056Z AUTO VRB03KT 02/01 A3009 RMK AO1 SLP202 T00220006





000
SAUS41 KCAR 021016
MTR40B
METAR K40B 021016Z AUTO 00000KT 03/03 A3010 RMK AO1 SLP201
     T00350032 57005





000
SAUS41 KCAR 020957
MTRGNR
METAR KGNR 020956Z AUTO 00000KT 02/01 A3009 RMK AO1 SLP201 T00170011





000
SAUS41 KCAR 020919
MTR40B
METAR K40B 020919Z AUTO 00000KT 04/03 A3010 RMK AO1 SLP199
     T00360032 58005 P0000 60005





000
SAUS41 KCAR 020919
MTR40B
METAR K40B 020919Z AUTO 00000KT 04/03 A3010 RMK AO1 SLP199
     T00360032 58005 P0000 60005





000
SAUS41 KCAR 020858
MTRGNR
METAR KGNR 020856Z AUTO 18003KT 02/01 A3008 RMK AO1 SLP197 P0001
60001 T00170011 58004





000
SAUS41 KCAR 020816
MTR40B
METAR K40B 020816Z AUTO VRB02KT 04/03 A3011 RMK AO1 SLP201
     T00410034 50001 P0001





000
SAUS41 KCAR 020757
MTRGNR
METAR KGNR 020756Z AUTO 17004KT 03/02 A3010 RMK AO1 SLP202 T00280022





000
SAUS41 KCAR 020716
MTR40B
METAR K40B 020716Z AUTO VRB05KT 05/04 A3012 RMK AO1 SLP203
     T00460036 52004 P0003





000
SAUS41 KCAR 020658
MTRGNR
METAR KGNR 020656Z AUTO 00000KT 03/02 A3009 RMK AO1 SLP201 T00330022





000
SAUS41 KCAR 020616
MTR40B
METAR K40B 020616Z AUTO 16007G13KT 120V190 05/03 A3011 RMK AO1
     SLP201 T00520033 10115 20052 52002 P0001 60001





000
SAUS41 KCAR 020616
MTR40B
METAR K40B 020616Z AUTO 16007G13KT 120V190 05/03 A3011 RMK AO1
     SLP201 T00520033 10115 20052 52002 P0001 60001





000
SAUS41 KCAR 020557
MTRGNR
METAR KGNR 020556Z AUTO 03003KT 03/03 A3009 RMK AO1 SLP200 60005
T00330028 10056 20033 58014





000
SAUS41 KCAR 020557
MTRGNR
METAR KGNR 020556Z AUTO 03003KT 03/03 A3009 RMK AO1 SLP200 60005
T00330028 10056 20033 58014





000
SAUS41 KCAR 020516
MTR40B
METAR K40B 020516Z AUTO 16007KT 07/02 A3011 RMK AO1 SLP199
     T00720024 401671054 54000





000
SAUS41 KCAR 020516
MTR40B
METAR K40B 020516Z AUTO 16007KT 07/02 A3011 RMK AO1 SLP199
     T00720024 401671054 54000





000
SAUS41 KCAR 020458
MTRGNR
METAR KGNR 020456Z AUTO 00000KT 03/03 A3011 RMK AO1 SLP207 P0001
T00330028 401330011





000
SAUS41 KCAR 020416
MTR40B
METAR K40B 020416Z AUTO VRB04KT 08/03 A3011 RMK AO1 SLP197
     T00830025 50000





000
SAUS41 KCAR 020416
MTR40B
METAR K40B 020416Z AUTO VRB04KT 08/03 A3011 RMK AO1 SLP197
     T00830025 50000





000
SAUS41 KCAR 020357
MTRGNR
METAR KGNR 020356Z AUTO 00000KT 03/02 A3012 RMK AO1 SLP209 P0001
T00330022





000
SAUS41 KCAR 020316
MTR40B
METAR K40B 020316Z AUTO 17006KT 09/03 A3011 RMK AO1 SLP196
     T00900026 50002 60000





000
SAUS41 KCAR 020258
MTRGNR
METAR KGNR 020256Z AUTO 00000KT 03/02 A3013 RMK AO1 SLP214 P0001
60003 T00330022 58002





000
SAUS41 KCAR 020258
MTRGNR
METAR KGNR 020256Z AUTO 00000KT 03/02 A3013 RMK AO1 SLP214 P0001
60003 T00330022 58002





000
SAUS41 KCAR 020216
MTR40B
METAR K40B 020216Z AUTO 17006KT 10/03 A3011 RMK AO1 SLP197
     T00990029 52007





000
SAUS41 KCAR 020157
MTRGNR
METAR KGNR 020156Z AUTO VRB03KT 04/02 A3014 RMK AO1 SLP217 P0001
T00390017





000
SAUS41 KCAR 020116
MTR40B
METAR K40B 020116Z AUTO 17007KT 10/03 A3011 RMK AO1 SLP196
     T01040026 53004 P0000





000
SAUS41 KCAR 020116
MTR40B
METAR K40B 020116Z AUTO 17007KT 10/03 A3011 RMK AO1 SLP196
     T01040026 53004 P0000





    US Dept of Commerce
    National Oceanic and Atmospheric Administration
    National Weather Service
    1325 East West Highway
    Silver Spring, MD 20910
    Page Author: NWS Internet Services Team
Disclaimer
Information Quality
Credits
Glossary
Privacy Policy
Freedom of Information Act (FOIA)
About Us
Career Opportunities